Time;durP1;ratioP1;P1;durP2;ratioP2;P2;SDS_P1;SDS_P2;PMS_P1;PMS_P2;Temp;Humidity;BMP_temperature;BMP_pressure;BME280_temperature;BME280_humidity;BME280_pressure;Samples;Min_cycle;Max_cycle;Signal;HPM_P1;HPM_P2
2021/06/10 00:00:21;;;;;;;18.77;14.90;;;17.30;99.90;;;18.34;100.00;98613.00;5102900;27;20859;-83
2021/06/10 00:02:50;;;;;;;15.97;13.93;;;17.20;99.90;;;18.38;100.00;98608.88;5097256;28;20526;-83
2021/06/10 00:05:21;;;;;;;19.00;13.23;;;17.30;99.90;;;18.28;100.00;98602.47;5099474;28;20447;-83
2021/06/10 00:07:50;;;;;;;17.27;12.60;;;17.10;99.90;;;18.17;100.00;98609.31;5105230;28;20498;-83
2021/06/10 00:10:25;;;;;;;19.13;14.00;;;17.10;99.90;;;18.22;100.00;98601.53;5093533;28;20996;-83
2021/06/10 00:12:54;;;;;;;22.53;13.87;;;17.10;99.90;;;18.16;100.00;98605.06;5100264;28;20470;-83
2021/06/10 00:15:27;;;;;;;22.27;12.73;;;17.10;99.90;;;17.87;100.00;98605.81;5093855;27;20474;-83
2021/06/10 00:17:56;;;;;;;15.67;13.97;;;16.70;99.90;;;17.87;100.00;98611.91;5108975;28;20426;-83
2021/06/10 00:20:28;;;;;;;25.10;13.87;;;16.80;99.90;;;18.01;100.00;98613.34;5110977;28;21051;-83
2021/06/10 00:22:57;;;;;;;14.33;12.70;;;16.90;99.90;;;18.05;100.00;98613.72;5102860;28;20466;-83
2021/06/10 00:25:29;;;;;;;17.50;13.67;;;17.00;99.90;;;17.91;100.00;98607.78;5102962;28;20544;-83
2021/06/10 00:27:59;;;;;;;16.53;14.40;;;16.80;99.90;;;17.78;100.00;98617.69;5103663;28;20498;-83
2021/06/10 00:30:28;;;;;;;20.93;13.80;;;16.60;99.90;;;17.67;100.00;98621.84;5105099;27;20476;-83
2021/06/10 00:32:56;;;;;;;17.63;13.63;;;16.50;99.90;;;17.72;100.00;98614.09;5106193;27;20438;-83
2021/06/10 00:35:25;;;;;;;19.17;13.80;;;16.60;99.90;;;17.81;100.00;98617.25;5101000;28;20500;-83
2021/06/10 00:37:57;;;;;;;19.50;14.20;;;16.80;99.90;;;17.77;100.00;98616.88;5096938;28;20544;-83
2021/06/10 00:40:28;;;;;;;17.93;14.67;;;16.70;99.90;;;17.88;100.00;98620.63;5106859;28;20444;-83
2021/06/10 00:42:57;;;;;;;18.47;13.50;;;16.80;99.90;;;17.86;100.00;98615.56;5109527;28;20958;-83
2021/06/10 00:45:26;;;;;;;17.17;13.63;;;16.90;99.90;;;17.97;100.00;98614.03;5107173;28;20439;-83
2021/06/10 00:47:55;;;;;;;22.30;14.43;;;17.00;99.90;;;17.90;100.00;98616.75;5107218;28;20486;-83
2021/06/10 00:50:31;;;;;;;15.40;13.67;;;16.80;99.90;;;17.74;100.00;98621.78;5094350;28;20439;-84
2021/06/10 00:52:59;;;;;;;22.37;13.80;;;16.70;99.90;;;17.66;100.00;98616.78;5105543;28;20975;-83
2021/06/10 00:55:29;;;;;;;20.00;13.80;;;16.50;99.90;;;17.63;100.00;98620.69;5101697;28;20773;-83
2021/06/10 00:57:57;;;;;;;24.83;15.03;;;16.50;99.90;;;17.62;100.00;98618.25;5103236;27;20439;-82
2021/06/10 01:00:25;;;;;;;17.70;14.50;;;16.50;99.90;;;17.43;100.00;98626.09;5095927;28;20440;-83
2021/06/10 01:02:53;;;;;;;23.60;14.87;;;16.20;99.90;;;17.38;100.00;98628.59;5095302;27;20446;-83
2021/06/10 01:05:22;;;;;;;22.40;14.53;;;16.20;99.90;;;17.37;100.00;98634.09;5108046;28;20439;-83
2021/06/10 01:08:04;;;;;;;18.03;14.60;;;16.20;99.90;;;17.39;100.00;98637.34;5109144;28;20486;-83
2021/06/10 01:10:52;;;;;;;17.13;14.40;;;16.20;99.90;;;17.46;100.00;98630.97;5098278;28;21019;-83
2021/06/10 01:13:29;;;;;;;18.50;14.47;;;16.30;99.90;;;17.33;100.00;98627.63;5108920;28;20474;-82
2021/06/10 01:16:03;;;;;;;17.67;14.57;;;16.20;99.90;;;17.25;100.00;98628.69;5106167;27;20437;-82
2021/06/10 01:18:32;;;;;;;19.70;15.20;;;16.10;99.90;;;17.28;100.00;98630.13;5104768;28;20927;-82
2021/06/10 01:21:02;;;;;;;16.77;15.00;;;16.10;99.90;;;17.17;100.00;98628.97;5099182;28;20438;-83
2021/06/10 01:24:01;;;;;;;17.40;13.70;;;16.10;99.90;;;17.25;100.00;98626.03;5099524;28;20440;-83
2021/06/10 01:26:37;;;;;;;18.73;15.10;;;16.10;99.90;;;17.29;100.00;98629.88;5104459;28;20504;-83
2021/06/10 01:29:13;;;;;;;20.50;14.07;;;16.20;99.90;;;17.17;100.00;98636.91;5104093;28;20490;-83
2021/06/10 01:31:41;;;;;;;25.60;13.57;;;16.00;99.90;;;17.26;100.00;98635.59;5103925;28;20440;-83
2021/06/10 01:34:13;;;;;;;21.83;13.30;;;16.20;99.90;;;17.22;100.00;98634.41;5106304;28;20495;-83
2021/06/10 01:36:46;;;;;;;15.43;13.80;;;16.20;99.90;;;17.13;100.00;98642.81;5100995;28;20532;-84
2021/06/10 01:39:25;;;;;;;24.10;14.90;;;16.10;99.90;;;17.16;100.00;98629.97;5098127;28;20443;-82
2021/06/10 01:41:55;;;;;;;20.40;14.50;;;16.10;99.90;;;17.07;100.00;98639.22;5099966;28;20442;-83
2021/06/10 01:44:27;;;;;;;20.77;15.03;;;16.00;99.90;;;16.98;100.00;98627.25;5106167;28;20438;-82
2021/06/10 01:46:55;;;;;;;19.50;15.60;;;15.90;99.90;;;16.79;100.00;98622.91;5101382;28;20445;-83
2021/06/10 01:49:26;;;;;;;18.90;14.57;;;15.70;99.90;;;16.73;100.00;98627.19;5104422;28;20981;-83
2021/06/10 01:51:55;;;;;;;18.27;14.63;;;15.60;99.90;;;16.78;100.00;98624.75;5109590;27;20447;-83
2021/06/10 01:54:26;;;;;;;18.43;14.17;;;15.70;99.90;;;16.83;100.00;98619.66;5100198;28;20523;-82
2021/06/10 01:56:55;;;;;;;20.03;14.60;;;15.70;99.90;;;16.97;100.00;98615.09;5101842;28;20442;-83
2021/06/10 01:59:26;;;;;;;17.93;14.00;;;15.90;99.90;;;16.98;100.00;98622.78;5103485;28;20440;-83
2021/06/10 02:01:58;;;;;;;25.37;14.27;;;15.90;99.90;;;16.97;100.00;98615.09;5099761;28;20868;-83
2021/06/10 02:04:26;;;;;;;19.60;14.37;;;15.90;99.90;;;16.82;100.00;98609.28;5101556;27;20502;-83
2021/06/10 02:06:57;;;;;;;19.83;13.97;;;15.80;99.90;;;16.77;100.00;98619.66;5118941;27;21000;-83
2021/06/10 02:09:26;;;;;;;20.83;15.77;;;15.70;99.90;;;16.80;100.00;98613.97;5108713;28;20490;-83
2021/06/10 02:11:55;;;;;;;16.60;13.77;;;15.70;99.90;;;16.73;100.00;98611.34;5101538;28;20459;-83
2021/06/10 02:14:25;;;;;;;21.50;13.77;;;15.60;99.90;;;16.74;100.00;98618.25;5098490;28;20981;-82
2021/06/10 02:16:56;;;;;;;20.00;14.13;;;15.60;99.90;;;16.70;100.00;98624.19;5105626;28;20439;-83
2021/06/10 02:19:24;;;;;;;18.80;14.03;;;15.60;99.90;;;16.60;100.00;98620.16;5107735;28;20442;-82
2021/06/10 02:21:52;;;;;;;17.87;13.70;;;15.50;99.90;;;16.52;100.00;98623.00;5105850;28;20513;-83
2021/06/10 02:24:20;;;;;;;19.50;15.07;;;15.40;99.90;;;16.50;100.00;98625.06;5104517;28;20455;-82
2021/06/10 02:26:48;;;;;;;23.40;14.53;;;15.40;99.90;;;16.54;100.00;98628.09;5104827;28;20499;-83
2021/06/10 02:29:16;;;;;;;19.80;14.37;;;15.40;99.90;;;16.57;100.00;98619.78;5104956;28;20535;-82
2021/06/10 02:31:46;;;;;;;19.00;13.50;;;15.50;99.90;;;16.51;100.00;98616.13;5100215;28;20493;-84
2021/06/10 02:34:15;;;;;;;16.67;14.10;;;15.40;99.90;;;16.49;100.00;98626.06;5099299;28;20442;-82
2021/06/10 02:36:47;;;;;;;23.67;14.20;;;15.40;99.90;;;16.51;100.00;98623.25;5102094;28;20540;-82
2021/06/10 02:39:19;;;;;;;17.10;13.83;;;15.40;99.90;;;16.51;100.00;98618.78;5106150;28;20446;-83
2021/06/10 02:41:52;;;;;;;17.60;15.33;;;15.40;99.90;;;16.44;100.00;98619.81;5102517;28;20497;-83
2021/06/10 02:44:21;;;;;;;19.70;13.03;;;15.30;99.90;;;16.39;100.00;98612.53;5106016;28;20434;-82
2021/06/10 02:46:50;;;;;;;20.83;14.40;;;15.30;99.90;;;16.47;100.00;98616.75;5102758;28;20443;-81
2021/06/10 02:49:21;;;;;;;17.17;14.50;;;15.40;99.90;;;16.49;100.00;98618.16;5099046;28;20490;-81
2021/06/10 02:51:49;;;;;;;23.57;14.33;;;15.50;99.90;;;16.46;100.00;98618.59;5103107;28;20438;-81
2021/06/10 02:54:20;;;;;;;19.87;14.00;;;15.40;99.90;;;16.51;100.00;98610.84;5104752;28;20506;-82
2021/06/10 02:56:50;;;;;;;19.30;14.27;;;15.50;99.90;;;16.50;100.00;98617.16;5104133;28;20442;-82
2021/06/10 02:59:22;;;;;;;20.03;14.40;;;15.50;99.90;;;16.46;100.00;98618.59;5098567;28;20496;-82
2021/06/10 03:01:53;;;;;;;17.93;14.00;;;15.40;99.90;;;16.37;100.00;98616.41;5097239;28;20446;-82
2021/06/10 03:04:22;;;;;;;15.30;13.43;;;15.30;99.90;;;16.37;100.00;98613.75;5100307;28;20443;-81
2021/06/10 03:06:53;;;;;;;18.50;14.67;;;15.30;99.90;;;16.46;100.00;98615.13;5092755;28;20775;-81
2021/06/10 03:09:23;;;;;;;18.97;13.67;;;15.40;99.90;;;16.32;100.00;98611.75;5104719;28;20547;-81
2021/06/10 03:11:51;;;;;;;18.60;15.23;;;15.30;99.90;;;16.27;100.00;98611.56;5107144;28;20505;-81
2021/06/10 03:14:21;;;;;;;16.23;13.50;;;15.20;99.90;;;16.24;100.00;98612.00;5105361;28;20813;-81
2021/06/10 03:16:51;;;;;;;19.73;14.07;;;15.20;99.90;;;16.37;100.00;98613.75;5105879;28;20435;-82
2021/06/10 03:19:21;;;;;;;19.13;13.90;;;15.30;99.90;;;16.32;100.00;98606.47;5104476;28;20442;-81
2021/06/10 03:21:49;;;;;;;18.30;13.57;;;15.20;99.90;;;16.37;100.00;98608.47;5103733;28;20431;-82
2021/06/10 03:24:18;;;;;;;23.73;13.33;;;15.30;99.90;;;16.32;100.00;98611.75;5096424;28;20489;-81
2021/06/10 03:26:48;;;;;;;23.67;14.20;;;15.30;99.90;;;16.24;100.00;98611.19;5102995;28;20447;-81
2021/06/10 03:29:16;;;;;;;20.13;13.57;;;15.20;99.90;;;16.20;100.00;98605.50;5110354;28;20955;-82
2021/06/10 03:31:46;;;;;;;17.40;14.37;;;15.10;99.90;;;16.18;100.00;98604.06;5099971;28;20509;-82
2021/06/10 03:34:18;;;;;;;19.73;13.93;;;15.10;99.90;;;16.19;100.00;98605.69;5098137;28;20867;-80
2021/06/10 03:36:48;;;;;;;17.43;14.17;;;15.10;99.90;;;16.21;100.00;98609.75;5103397;28;20485;-82
2021/06/10 03:39:20;;;;;;;22.87;13.90;;;15.10;99.90;;;16.19;100.00;98600.44;5102497;28;20451;-82
2021/06/10 03:41:48;;;;;;;21.87;14.87;;;15.10;99.90;;;16.15;100.00;98607.13;5105439;27;20497;-82
2021/06/10 03:44:17;;;;;;;19.83;13.10;;;15.10;99.90;;;16.15;100.00;98612.41;5102345;27;20458;-82
2021/06/10 03:46:46;;;;;;;21.63;15.83;;;15.10;99.90;;;16.08;100.00;98610.63;5103188;28;20515;-82
2021/06/10 03:49:16;;;;;;;21.30;13.83;;;15.00;99.90;;;16.07;100.00;98605.53;5099519;28;20501;-81
2021/06/10 03:51:49;;;;;;;24.70;13.53;;;15.00;99.90;;;15.98;100.00;98610.25;5107599;28;20469;-82
2021/06/10 03:54:19;;;;;;;18.97;14.17;;;14.90;99.90;;;15.98;100.00;98604.97;5106071;28;20451;-82
2021/06/10 03:56:48;;;;;;;22.17;14.13;;;14.90;99.90;;;15.96;100.00;98600.91;5098381;28;20458;-82
2021/06/10 03:59:16;;;;;;;18.53;15.07;;;14.80;99.90;;;15.95;100.00;98600.09;5104981;27;20499;-82
2021/06/10 04:01:45;;;;;;;20.67;14.57;;;14.80;99.90;;;15.94;100.00;98602.94;5106030;28;20496;-82
2021/06/10 04:04:13;;;;;;;17.23;13.90;;;14.80;99.90;;;15.92;100.00;98603.16;5108644;27;20841;-89
2021/06/10 04:06:42;;;;;;;16.30;14.17;;;14.80;99.90;;;16.03;100.00;98607.00;5100065;28;20878;-81
2021/06/10 04:09:11;;;;;;;18.17;13.80;;;15.00;99.90;;;16.01;100.00;98601.09;5102125;27;20485;-81
2021/06/10 04:11:40;;;;;;;18.77;15.10;;;14.90;99.90;;;15.89;100.00;98600.13;5110732;27;20458;-81
2021/06/10 04:14:08;;;;;;;21.10;15.80;;;14.80;99.90;;;15.85;100.00;98599.72;5108663;27;20451;-81
2021/06/10 04:16:36;;;;;;;29.73;15.77;;;14.80;99.90;;;15.85;100.00;98604.19;5101136;28;20809;-81
2021/06/10 04:19:04;;;;;;;22.73;14.87;;;14.80;99.90;;;15.90;100.00;98609.63;5101437;28;20439;-82
2021/06/10 04:21:32;;;;;;;32.07;15.60;;;14.80;99.90;;;15.96;100.00;98607.00;5112021;28;20499;-81
2021/06/10 04:24:02;;;;;;;21.73;15.47;;;14.90;99.90;;;16.02;100.00;98602.72;5108944;28;20892;-87
2021/06/10 04:26:30;;;;;;;20.03;15.33;;;15.00;99.90;;;16.05;100.00;98605.75;5110069;28;20847;-81
2021/06/10 04:28:58;;;;;;;32.13;16.03;;;15.00;99.90;;;16.11;100.00;98615.47;5109854;28;20830;-81
2021/06/10 04:31:26;;;;;;;18.03;15.00;;;15.10;99.90;;;16.19;100.00;98611.78;5104646;28;20453;-81
2021/06/10 04:33:54;;;;;;;19.80;15.80;;;15.10;99.90;;;16.20;100.00;98618.72;5101299;28;20463;-81
2021/06/10 04:36:22;;;;;;;26.20;15.30;;;15.20;99.90;;;16.18;100.00;98615.44;5108064;28;20883;-81
2021/06/10 04:38:51;;;;;;;18.23;12.53;;;15.10;99.90;;;16.19;100.00;98611.78;5108770;28;20447;-81
2021/06/10 04:41:20;;;;;;;22.07;14.73;;;15.10;99.90;;;16.22;100.00;98614.00;5095035;28;20436;-81
2021/06/10 04:43:48;;;;;;;21.73;13.57;;;15.20;99.90;;;16.14;100.00;98613.44;5104239;28;20478;-81
2021/06/10 04:46:16;;;;;;;21.30;14.33;;;15.00;99.90;;;16.18;100.00;98618.09;5105888;28;20496;-81
2021/06/10 04:48:44;;;;;;;21.60;14.80;;;15.10;99.90;;;16.16;100.00;98612.22;5109535;28;20991;-81
2021/06/10 04:51:12;;;;;;;18.33;14.30;;;15.10;99.90;;;16.18;100.00;98618.09;5107094;28;20851;-81
2021/06/10 04:53:42;;;;;;;16.17;13.83;;;15.10;99.90;;;16.19;100.00;98621.53;5110423;27;20443;-81
2021/06/10 04:56:10;;;;;;;17.57;14.60;;;15.10;99.90;;;16.21;100.00;98620.31;5104059;28;20438;-81
2021/06/10 04:58:39;;;;;;;19.23;14.87;;;15.10;99.90;;;16.28;100.00;98617.66;5101283;28;20496;-81
2021/06/10 05:01:07;;;;;;;20.13;14.57;;;15.20;99.90;;;16.36;100.00;98615.59;5106390;28;20446;-81
2021/06/10 05:03:35;;;;;;;16.87;14.50;;;15.30;99.90;;;16.44;100.00;98618.00;5100498;28;20478;-81
2021/06/10 05:06:04;;;;;;;19.23;14.37;;;15.40;99.90;;;16.45;100.00;98622.22;5107660;28;20467;-81
2021/06/10 05:08:33;;;;;;;16.50;14.70;;;15.40;99.90;;;16.47;100.00;98620.22;5107662;28;20970;-81
2021/06/10 05:11:01;;;;;;;34.70;16.30;;;15.50;99.90;;;16.52;100.00;98624.88;5118240;27;20943;-81
2021/06/10 05:13:29;;;;;;;21.00;15.57;;;15.50;99.90;;;16.58;100.00;98614.31;5105044;28;20446;-81
2021/06/10 05:15:59;;;;;;;15.37;13.63;;;15.60;99.90;;;16.62;100.00;98616.53;5103818;28;20492;-81
2021/06/10 05:18:27;;;;;;;17.63;14.30;;;15.60;99.90;;;16.63;100.00;98615.47;5114102;28;20529;-81
2021/06/10 05:20:55;;;;;;;19.90;15.37;;;15.60;99.90;;;16.64;100.00;98617.91;5107234;27;20519;-81
2021/06/10 05:23:23;;;;;;;22.00;14.37;;;15.60;99.90;;;16.72;100.00;98617.69;5102470;28;20450;-81
2021/06/10 05:25:51;;;;;;;16.73;14.90;;;15.70;99.90;;;16.75;100.00;98616.44;5106005;28;20512;-82
2021/06/10 05:28:19;;;;;;;20.00;15.23;;;15.80;99.90;;;16.77;100.00;98617.84;5110356;27;20821;-81
2021/06/10 05:30:47;;;;;;;26.20;16.07;;;15.80;99.90;;;16.82;100.00;98623.31;5108395;27;20539;-81
2021/06/10 05:33:16;;;;;;;22.83;14.57;;;15.90;99.90;;;16.82;100.00;98620.66;5106394;28;20802;-81
2021/06/10 05:35:44;;;;;;;20.07;16.30;;;15.90;99.90;;;16.87;100.00;98622.69;5109637;27;20438;-81
2021/06/10 05:38:13;;;;;;;21.03;12.57;;;15.90;99.90;;;16.92;100.00;98612.25;5112340;27;20975;-80
2021/06/10 05:40:40;;;;;;;17.23;14.13;;;15.90;99.90;;;16.95;100.00;98617.13;5117381;27;20935;-81
2021/06/10 05:43:09;;;;;;;16.13;13.17;;;16.00;99.90;;;17.00;100.00;98620.75;5103203;27;20444;-81
2021/06/10 05:45:37;;;;;;;24.13;13.53;;;16.00;99.90;;;17.09;100.00;98610.72;5106279;28;20973;-81
2021/06/10 05:48:07;;;;;;;23.00;15.00;;;16.10;99.90;;;17.17;100.00;98613.13;5110778;28;20789;-81
2021/06/10 05:50:36;;;;;;;23.70;17.50;;;16.20;99.90;;;17.24;100.00;98613.88;5105365;28;20486;-81
2021/06/10 05:53:05;;;;;;;19.17;14.53;;;16.40;99.90;;;17.33;100.00;98614.41;5108191;28;20438;-81
2021/06/10 05:55:33;;;;;;;19.73;15.60;;;16.40;99.90;;;17.35;100.00;98622.94;5099681;28;20488;-81
2021/06/10 05:58:01;;;;;;;17.40;14.47;;;16.40;99.90;;;17.41;100.00;98627.34;5104372;28;20446;-81
2021/06/10 06:00:30;;;;;;;19.87;14.20;;;16.50;99.90;;;17.46;100.00;98620.38;5097835;28;20449;-81
2021/06/10 06:02:59;;;;;;;19.80;16.00;;;16.50;99.90;;;17.50;100.00;98621.56;5100845;28;20439;-80
2021/06/10 06:05:27;;;;;;;27.23;15.13;;;16.60;99.90;;;17.54;100.00;98622.75;5102420;28;20447;-80
2021/06/10 06:07:56;;;;;;;344.13;54.60;;;16.60;99.90;;;17.52;100.00;98614.25;5098189;28;20455;-81
2021/06/10 06:10:24;;;;;;;21.10;15.40;;;16.60;99.90;;;17.62;100.00;98620.91;5093001;28;20544;-80
2021/06/10 06:12:53;;;;;;;16.23;14.30;;;16.70;99.90;;;17.68;100.00;98620.03;5098318;28;20902;-80
2021/06/10 06:15:21;;;;;;;23.47;14.87;;;16.80;99.90;;;17.71;100.00;98617.75;5103145;28;20846;-80
2021/06/10 06:17:49;;;;;;;21.67;14.30;;;16.80;99.90;;;17.79;100.00;98611.38;5120477;27;20442;-80
2021/06/10 06:20:20;;;;;;;24.30;13.30;;;16.90;99.90;;;17.78;100.00;98612.38;5109566;28;20439;-80
2021/06/10 06:22:48;;;;;;;24.33;13.90;;;16.90;99.90;;;17.85;100.00;98623.72;5104807;28;20503;-81
2021/06/10 06:25:20;;;;;;;177.40;20.37;;;16.90;99.90;;;17.87;100.00;98619.03;5107359;28;20462;-81
2021/06/10 06:27:49;;;;;;;24.63;14.43;;;16.90;99.90;;;17.94;100.00;98622.41;5101013;28;20444;-81
2021/06/10 06:30:18;;;;;;;19.83;14.53;;;17.00;99.90;;;18.04;100.00;98622.72;5104225;28;20512;-80
2021/06/10 06:32:48;;;;;;;19.53;14.30;;;17.10;99.90;;;18.13;100.00;98625.88;5103715;28;20443;-80
2021/06/10 06:35:16;;;;;;;17.30;14.90;;;17.20;99.90;;;18.21;100.00;98620.28;5105647;28;20443;-80
2021/06/10 06:37:44;;;;;;;19.27;15.27;;;17.30;99.90;;;18.25;100.00;98624.13;5119060;27;20472;-80
2021/06/10 06:40:14;;;;;;;18.40;13.80;;;17.40;99.90;;;18.32;100.00;98623.00;5109452;27;20453;-80
2021/06/10 06:42:43;;;;;;;22.90;13.90;;;17.50;99.90;;;18.37;100.00;98617.84;5108126;28;20462;-81
2021/06/10 06:45:12;;;;;;;22.93;13.93;;;17.50;99.90;;;18.45;100.00;98617.53;5106313;28;20507;-81
2021/06/10 06:47:40;;;;;;;18.20;13.63;;;17.60;99.90;;;18.51;100.00;98618.50;5106481;28;20514;-80
2021/06/10 06:50:10;;;;;;;18.50;15.30;;;17.70;99.90;;;18.58;100.00;98616.59;5104531;28;20517;-81
2021/06/10 06:52:38;;;;;;;32.97;16.57;;;17.80;99.90;;;18.66;100.00;98621.56;5102252;28;20490;-81
2021/06/10 06:55:08;;;;;;;23.10;17.90;;;17.90;99.90;;;18.76;100.00;98626.34;5111163;27;20446;-81
2021/06/10 06:57:36;;;;;;;28.40;17.00;;;18.10;99.90;;;18.82;100.00;98620.13;5106235;27;20430;-81
2021/06/10 07:00:07;;;;;;;23.30;17.30;;;18.10;99.90;;;18.90;100.00;98620.63;5107771;28;20851;-81
2021/06/10 07:02:36;;;;;;;20.17;15.23;;;18.30;99.90;;;18.99;100.00;98623.75;5103122;28;20440;-81
2021/06/10 07:05:09;;;;;;;21.60;16.33;;;18.40;99.90;;;19.07;100.00;98626.09;5101156;28;20537;-82
2021/06/10 07:07:37;;;;;;;28.23;18.20;;;18.50;99.90;;;19.15;100.00;98625.78;5108904;28;20953;-81
2021/06/10 07:10:07;;;;;;;18.97;14.53;;;18.60;99.90;;;19.22;100.00;98615.06;5109042;28;20975;-81
2021/06/10 07:12:35;;;;;;;18.23;14.30;;;18.60;99.90;;;19.28;100.00;98620.25;5100257;28;20873;-81
2021/06/10 07:15:07;;;;;;;23.03;14.60;;;18.60;99.90;;;19.34;100.00;98624.63;5106445;28;20946;-81
2021/06/10 07:17:35;;;;;;;21.70;15.00;;;18.70;99.90;;;19.42;100.00;98620.88;5105244;28;20495;-81
2021/06/10 07:20:05;;;;;;;23.77;15.07;;;18.70;99.90;;;19.47;100.00;98613.06;5100121;28;20439;-82
2021/06/10 07:22:38;;;;;;;19.10;15.40;;;18.80;99.90;;;19.52;100.00;98624.56;5105555;28;20468;-81
2021/06/10 07:25:08;;;;;;;24.90;16.70;;;18.80;99.90;;;19.56;100.00;98615.13;5099347;28;20466;-81
2021/06/10 07:27:37;;;;;;;27.90;17.50;;;18.90;99.90;;;19.64;100.00;98618.47;5104801;28;20443;-81
2021/06/10 07:30:09;;;;;;;19.00;14.30;;;18.90;99.90;;;19.69;100.00;98622.03;5101909;28;20486;-82
2021/06/10 07:32:37;;;;;;;19.57;14.37;;;19.00;99.90;;;19.75;100.00;98617.66;5105440;28;20500;-81
2021/06/10 07:35:08;;;;;;;18.13;13.20;;;19.00;99.90;;;19.80;100.00;98623.06;5100372;28;20492;-81
2021/06/10 07:37:36;;;;;;;23.47;13.87;;;19.10;99.90;;;19.84;100.00;98617.06;5106779;28;20489;-81
2021/06/10 07:40:06;;;;;;;20.70;14.07;;;19.20;99.90;;;19.90;100.00;98613.50;5096538;28;20443;-81
2021/06/10 07:42:34;;;;;;;18.67;14.20;;;19.20;99.90;;;19.96;100.00;98617.84;5097222;28;20488;-81
2021/06/10 07:45:02;;;;;;;25.33;14.00;;;19.30;99.90;;;20.01;100.00;98617.16;5104696;28;20479;-81
2021/06/10 07:47:32;;;;;;;16.10;13.03;;;19.30;99.90;;;20.06;100.00;98619.94;5106303;28;20435;-82
2021/06/10 07:50:00;;;;;;;19.33;11.80;;;19.40;99.90;;;20.12;100.00;98620.84;5104204;28;20490;-83
2021/06/10 07:52:28;;;;;;;20.20;14.77;;;19.50;99.90;;;20.17;100.00;98627.06;5102490;28;20442;-82
2021/06/10 07:54:56;;;;;;;21.17;14.03;;;19.50;99.90;;;20.22;100.00;98615.75;5106839;28;20495;-82
2021/06/10 07:57:24;;;;;;;16.93;14.50;;;19.60;99.90;;;20.30;100.00;98618.88;5105941;28;20443;-82
2021/06/10 07:59:52;;;;;;;19.40;14.90;;;19.70;99.90;;;20.34;100.00;98612.03;5105220;28;20578;-82
2021/06/10 08:02:41;;;;;;;20.80;16.43;;;19.80;99.90;;;20.41;100.00;98612.72;5114733;28;20431;-82
2021/06/10 08:05:12;;;;;;;18.90;14.00;;;19.90;99.90;;;20.48;100.00;98623.19;5110288;28;20438;-82
2021/06/10 08:07:42;;;;;;;30.23;14.07;;;19.90;99.90;;;20.52;100.00;98617.19;5107552;28;20842;-82
2021/06/10 08:10:12;;;;;;;21.83;16.23;;;20.00;99.90;;;20.59;100.00;98625.00;5108642;28;20482;-81
2021/06/10 08:12:46;;;;;;;27.20;13.60;;;20.00;99.90;;;20.66;100.00;98622.22;5098940;28;20511;-82
2021/06/10 08:15:15;;;;;;;16.87;13.37;;;20.10;99.90;;;20.74;100.00;98627.16;5105988;28;20816;-81
2021/06/10 08:17:45;;;;;;;18.70;13.17;;;20.20;99.90;;;20.80;100.00;98620.88;5105959;28;20436;-81
2021/06/10 08:20:16;;;;;;;18.47;12.47;;;20.20;99.90;;;20.85;100.00;98621.00;5105859;28;20801;-82
2021/06/10 08:22:46;;;;;;;17.03;13.37;;;20.30;99.90;;;20.91;100.00;98604.88;5105272;28;20443;-81
2021/06/10 08:25:14;;;;;;;24.67;16.50;;;20.30;99.90;;;20.95;100.00;98621.97;5102970;28;20550;-82
2021/06/10 08:27:44;;;;;;;30.17;16.23;;;20.40;99.90;;;20.99;100.00;98611.66;5103857;28;20944;-81
2021/06/10 08:30:14;;;;;;;19.97;13.33;;;20.50;99.90;;;21.05;100.00;98610.69;5105477;28;20486;-81
2021/06/10 08:32:42;;;;;;;22.17;15.23;;;20.50;99.90;;;21.11;100.00;98615.09;5109250;28;20434;-82
2021/06/10 08:35:13;;;;;;;15.57;12.40;;;20.50;99.90;;;21.14;100.00;98613.81;5106877;27;20443;-82
2021/06/10 08:37:41;;;;;;;21.43;13.93;;;20.60;99.90;;;21.19;100.00;98609.38;5120466;27;20477;-82
2021/06/10 08:40:13;;;;;;;17.60;13.87;;;20.60;99.90;;;21.26;100.00;98602.03;5109129;27;20446;-82
2021/06/10 08:42:44;;;;;;;16.90;13.50;;;20.70;99.90;;;21.31;100.00;98602.09;5106623;28;20448;-81
2021/06/10 08:45:15;;;;;;;16.80;12.10;;;20.70;99.90;;;21.36;100.00;98607.53;5111086;28;20438;-81
2021/06/10 08:47:45;;;;;;;17.50;13.67;;;20.80;99.90;;;21.41;100.00;98612.94;5110858;28;20434;-81
2021/06/10 08:50:22;;;;;;;22.57;15.27;;;20.80;99.90;;;21.47;100.00;98611.97;5114262;27;21058;-82
2021/06/10 08:52:51;;;;;;;22.10;15.23;;;20.90;99.90;;;21.54;96.65;98615.25;5112518;27;20445;-81
2021/06/10 08:55:21;;;;;;;17.77;12.90;;;21.10;99.90;;;21.64;97.08;98608.47;5105347;28;20438;-82
2021/06/10 08:57:49;;;;;;;18.60;13.73;;;21.10;99.90;;;21.70;98.29;98608.28;5108752;27;20451;-82
2021/06/10 09:00:28;;;;;;;16.73;13.17;;;21.20;99.90;;;21.77;97.03;98602.78;5119544;27;20553;-82
2021/06/10 09:02:58;;;;;;;17.73;11.83;;;21.30;99.90;;;21.83;96.83;98601.84;5104655;28;20439;-82
2021/06/10 09:05:29;;;;;;;12.53;9.50;;;21.30;99.90;;;21.89;97.40;98612.31;5110461;28;20435;-81
2021/06/10 09:08:01;;;;;;;22.20;13.53;;;21.40;99.90;;;21.93;91.58;98604.66;5100228;28;20442;-82
2021/06/10 09:10:32;;;;;;;18.00;13.13;;;21.40;99.90;;;22.02;83.92;98613.81;5111684;27;20514;-82
2021/06/10 09:13:02;;;;;;;19.23;12.43;;;21.60;99.90;;;22.07;85.74;98609.34;5104017;27;20454;-81
2021/06/10 09:15:32;;;;;;;14.30;11.00;;;21.60;99.90;;;22.12;87.60;98611.28;5108181;28;20439;-82
2021/06/10 09:18:02;;;;;;;14.33;10.37;;;21.60;99.90;;;22.19;87.79;98616.44;5109545;28;20878;-82
2021/06/10 09:20:41;;;;;;;12.50;10.30;;;21.60;99.90;;;22.21;89.45;98617.81;5103820;27;20451;-81
2021/06/10 09:23:17;;;;;;;17.20;13.80;;;21.70;99.90;;;22.26;88.41;98615.19;5109909;27;20442;-82
2021/06/10 09:25:49;;;;;;;18.30;10.47;;;21.80;99.90;;;22.33;90.11;98609.69;5103984;28;20474;-81
2021/06/10 09:28:18;;;;;;;18.70;13.10;;;21.80;99.90;;;22.38;86.16;98615.91;5106754;28;20430;-82
2021/06/10 09:30:50;;;;;;;16.73;12.87;;;22.00;99.90;;;22.43;85.82;98609.81;5106580;28;20596;-82
2021/06/10 09:33:21;;;;;;;18.20;12.13;;;22.00;99.90;;;22.50;85.99;98608.56;5104342;28;20434;-81
2021/06/10 09:35:54;;;;;;;14.70;11.20;;;22.10;99.90;;;22.57;86.84;98613.69;5109227;27;20445;-82
2021/06/10 09:38:23;;;;;;;20.23;13.10;;;22.10;99.90;;;22.59;84.38;98607.03;5102281;28;20467;-82
2021/06/10 09:41:05;;;;;;;17.03;12.80;;;22.10;99.90;;;22.68;82.62;98609.31;5105285;27;20445;-82
2021/06/10 09:43:43;;;;;;;20.13;11.57;;;22.30;99.90;;;22.75;81.68;98615.25;5108964;27;20433;-82
2021/06/10 09:46:12;;;;;;;15.00;12.47;;;22.30;99.90;;;22.85;80.06;98610.00;5104202;27;20438;-82
2021/06/10 09:48:42;;;;;;;11.63;9.90;;;22.40;99.90;;;22.91;81.18;98615.16;5110070;28;20446;-82
2021/06/10 09:51:24;;;;;;;16.07;12.10;;;22.40;99.90;;;22.93;78.46;98607.72;5107254;28;20486;-82
2021/06/10 09:53:52;;;;;;;12.57;10.77;;;22.30;99.90;;;23.02;79.44;98600.03;5103837;28;20453;-82
2021/06/10 09:56:24;;;;;;;24.90;11.30;;;22.40;99.90;;;23.09;78.80;98600.63;5114920;27;20470;-81
2021/06/10 09:58:55;;;;;;;13.93;10.00;;;22.50;99.90;;;23.19;78.96;98602.56;5107643;28;20837;-82
2021/06/10 10:01:24;;;;;;;12.67;9.00;;;22.60;99.90;;;23.26;79.70;98601.31;5105696;28;20438;-82
2021/06/10 10:03:53;;;;;;;12.63;9.80;;;22.70;99.90;;;23.31;80.84;98604.03;5107592;28;20490;-82
2021/06/10 10:06:26;;;;;;;13.73;10.57;;;22.70;99.90;;;23.36;75.15;98605.94;5114172;27;20842;-82
2021/06/10 10:08:59;;;;;;;13.90;9.70;;;22.90;99.90;;;23.39;74.81;98595.56;5114518;27;20540;-82
2021/06/10 10:11:31;;;;;;;12.23;10.53;;;22.80;99.90;;;23.41;75.00;98598.81;5101089;28;20887;-82